Time;durP1;ratioP1;P1;durP2;ratioP2;P2;SDS_P1;SDS_P2;PMS_P1;PMS_P2;Temp;Humidity;BMP_temperature;BMP_pressure;BME280_temperature;BME280_humidity;BME280_pressure;Samples;Min_cycle;Max_cycle;Signal;HPM_P1;HPM_P2
2021/09/21 00:02:05;;;;;;;6.95;5.47;;;9.80;99.90;;;;;;6183149;23;20051;-71
2021/09/21 00:04:30;;;;;;;7.32;5.95;;;9.80;99.90;;;;;;6159173;23;20024;-72
2021/09/21 00:06:57;;;;;;;7.97;6.50;;;9.80;99.90;;;;;;6185259;23;20020;-72
2021/09/21 00:09:23;;;;;;;6.70;5.93;;;9.90;99.90;;;;;;6212496;23;20017;-72
2021/09/21 00:11:51;;;;;;;6.00;5.10;;;9.90;99.90;;;;;;6185809;23;20286;-71
2021/09/21 00:14:18;;;;;;;7.55;5.78;;;9.90;99.90;;;;;;6212307;23;20074;-71
2021/09/21 00:16:43;;;;;;;6.70;5.03;;;10.00;99.90;;;;;;6136546;23;20441;-72
2021/09/21 00:19:09;;;;;;;7.25;5.72;;;10.00;99.90;;;;;;6186417;23;20017;-71
2021/09/21 00:21:35;;;;;;;7.03;5.15;;;10.00;99.90;;;;;;6185264;23;20020;-72
2021/09/21 00:24:04;;;;;;;9.02;6.40;;;10.00;99.90;;;;;;6186871;23;20535;-71
2021/09/21 00:26:29;;;;;;;8.57;6.93;;;10.00;99.90;;;;;;6138622;23;20517;-72
2021/09/21 00:29:00;;;;;;;8.93;7.03;;;10.00;99.90;;;;;;6183723;23;20016;-71
2021/09/21 00:31:38;;;;;;;11.60;6.72;;;10.00;99.90;;;;;;6160434;23;20016;-71
2021/09/21 00:34:13;;;;;;;8.55;5.88;;;10.00;99.90;;;;;;6164608;23;20016;-72
2021/09/21 00:36:41;;;;;;;14.40;6.38;;;10.00;99.90;;;;;;6163338;23;20020;-72
2021/09/21 00:39:11;;;;;;;8.95;7.20;;;10.10;99.90;;;;;;6186101;23;20130;-71
2021/09/21 00:41:38;;;;;;;8.60;7.18;;;10.10;99.90;;;;;;6212247;23;20016;-71
2021/09/21 00:44:05;;;;;;;9.15;8.07;;;10.10;99.90;;;;;;6182522;23;20020;-71
2021/09/21 00:46:35;;;;;;;10.73;9.00;;;10.20;99.90;;;;;;6211291;23;20016;-71
2021/09/21 00:49:04;;;;;;;11.25;8.45;;;10.10;99.90;;;;;;6212447;23;20051;-72
2021/09/21 00:51:30;;;;;;;8.15;6.95;;;10.10;99.90;;;;;;6209487;23;20022;-71
2021/09/21 00:53:56;;;;;;;7.57;6.40;;;10.20;99.90;;;;;;6212608;23;20083;-72
2021/09/21 00:56:22;;;;;;;8.50;7.43;;;10.20;99.90;;;;;;6209156;23;20020;-71
2021/09/21 00:58:48;;;;;;;10.90;7.85;;;10.20;99.90;;;;;;6210440;23;20058;-72
2021/09/21 01:01:13;;;;;;;8.25;6.25;;;10.30;99.90;;;;;;6185768;23;20443;-72
2021/09/21 01:03:39;;;;;;;8.55;6.80;;;10.30;99.90;;;;;;6160642;23;20400;-72
2021/09/21 01:06:05;;;;;;;7.90;6.53;;;10.20;99.90;;;;;;6162568;23;20341;-72
2021/09/21 01:08:34;;;;;;;7.80;6.50;;;10.30;99.90;;;;;;6206562;23;20019;-72
2021/09/21 01:11:00;;;;;;;8.77;6.30;;;10.30;99.90;;;;;;6188405;23;20074;-71
2021/09/21 01:13:26;;;;;;;12.27;7.95;;;10.20;99.90;;;;;;6159003;23;20016;-72
2021/09/21 01:15:51;;;;;;;9.32;7.65;;;10.30;99.90;;;;;;6187091;23;20364;-72
2021/09/21 01:18:17;;;;;;;8.43;6.53;;;10.20;99.90;;;;;;6210410;23;20153;-72
2021/09/21 01:20:43;;;;;;;8.45;6.28;;;10.30;99.90;;;;;;6209930;23;20016;-72
2021/09/21 01:23:09;;;;;;;7.65;6.03;;;10.20;99.90;;;;;;6211176;23;20012;-72
2021/09/21 01:25:34;;;;;;;7.72;6.22;;;10.30;99.90;;;;;;6161721;23;20519;-71
2021/09/21 01:28:00;;;;;;;10.38;8.48;;;10.30;99.90;;;;;;6209417;23;20020;-72
2021/09/21 01:30:26;;;;;;;9.30;7.22;;;10.30;99.90;;;;;;6184807;23;20069;-72
2021/09/21 01:32:52;;;;;;;6.93;5.90;;;10.30;99.90;;;;;;6186025;23;20020;-72
2021/09/21 01:35:18;;;;;;;9.23;8.30;;;10.30;99.90;;;;;;6211189;23;20536;-71
2021/09/21 01:37:50;;;;;;;8.85;6.68;;;10.30;99.90;;;;;;6210284;23;20634;-72
2021/09/21 01:40:17;;;;;;;8.13;6.90;;;10.40;99.90;;;;;;6185843;23;20522;-72
2021/09/21 01:42:48;;;;;;;10.27;8.98;;;10.40;99.90;;;;;;6210756;23;20360;-71
2021/09/21 01:45:16;;;;;;;9.88;8.38;;;10.40;99.90;;;;;;6211799;23;20016;-72
2021/09/21 01:47:45;;;;;;;9.63;8.40;;;10.40;99.90;;;;;;6135885;23;20016;-72
2021/09/21 01:50:20;;;;;;;10.48;7.97;;;10.30;99.90;;;;;;6210645;23;20081;-72
2021/09/21 01:53:01;;;;;;;7.80;7.00;;;10.30;99.90;;;;;;6210811;23;20094;-72
2021/09/21 01:58:46;;;;;;;9.23;6.53;;;10.40;99.90;;;;;;6164277;23;20030;-72
2021/09/21 02:01:05;;;;;;;8.25;7.25;;;10.40;99.90;;;;;;6190758;23;20035;-72
2021/09/21 02:03:31;;;;;;;8.00;6.97;;;10.40;99.90;;;;;;6187051;23;20020;-72
2021/09/21 02:05:56;;;;;;;8.32;7.43;;;10.40;99.90;;;;;;6136296;23;20078;-72
2021/09/21 02:08:22;;;;;;;8.15;6.57;;;10.40;99.90;;;;;;6134545;23;20020;-72
2021/09/21 02:10:48;;;;;;;8.93;6.55;;;10.40;99.90;;;;;;6162242;23;20469;-72
2021/09/21 02:13:14;;;;;;;12.45;7.07;;;10.40;99.90;;;;;;6188050;23;20692;-72
2021/09/21 02:15:40;;;;;;;7.53;6.07;;;10.50;99.90;;;;;;6186427;23;20095;-72
2021/09/21 02:18:07;;;;;;;7.65;6.75;;;10.40;99.90;;;;;;6212119;23;20083;-72
2021/09/21 02:20:33;;;;;;;8.90;7.68;;;10.50;99.90;;;;;;6209875;23;20020;-71
2021/09/21 02:22:59;;;;;;;12.05;10.02;;;10.50;99.90;;;;;;6188455;23;20383;-72
2021/09/21 02:25:25;;;;;;;10.82;9.43;;;10.40;99.90;;;;;;6185911;23;20027;-72
2021/09/21 02:27:51;;;;;;;9.50;7.65;;;10.40;99.90;;;;;;6212288;23;20024;-72
2021/09/21 02:30:17;;;;;;;8.13;6.55;;;10.40;99.90;;;;;;6212666;23;20024;-72
2021/09/21 02:32:44;;;;;;;8.13;7.32;;;10.40;99.90;;;;;;6138166;23;20020;-72
2021/09/21 02:35:10;;;;;;;7.65;6.85;;;10.40;99.90;;;;;;6164530;23;20421;-72
2021/09/21 02:37:35;;;;;;;11.38;8.77;;;10.40;99.90;;;;;;6187165;23;20027;-72
2021/09/21 02:40:05;;;;;;;10.35;9.20;;;10.40;99.90;;;;;;6188743;23;20020;-72
2021/09/21 02:42:41;;;;;;;7.20;6.50;;;10.40;99.90;;;;;;6187649;23;20026;-72
2021/09/21 02:45:07;;;;;;;11.63;8.23;;;10.40;99.90;;;;;;6213904;23;20445;-72
2021/09/21 02:47:34;;;;;;;9.10;8.18;;;10.40;99.90;;;;;;6213669;23;20341;-72
2021/09/21 02:50:00;;;;;;;10.25;8.52;;;10.40;99.90;;;;;;6185025;23;20391;-72
2021/09/21 02:52:27;;;;;;;10.82;8.88;;;10.40;99.90;;;;;;6212611;23;20051;-72
2021/09/21 02:54:53;;;;;;;8.52;7.15;;;10.50;99.90;;;;;;6213178;23;20027;-72
2021/09/21 02:57:18;;;;;;;9.95;7.72;;;10.50;99.90;;;;;;6182704;23;20036;-72
2021/09/21 02:59:44;;;;;;;9.20;7.65;;;10.60;99.90;;;;;;6181017;23;20124;-72
2021/09/21 03:02:10;;;;;;;12.35;10.52;;;10.60;99.90;;;;;;6158762;23;20120;-72
2021/09/21 03:04:40;;;;;;;11.73;10.45;;;10.60;99.90;;;;;;6205951;23;20023;-72
2021/09/21 03:07:09;;;;;;;12.50;11.20;;;10.60;99.90;;;;;;6181327;23;20056;-72
2021/09/21 03:09:50;;;;;;;13.93;11.52;;;10.60;99.90;;;;;;6207151;23;20362;-72
2021/09/21 03:12:30;;;;;;;13.15;11.77;;;10.60;99.90;;;;;;6160938;23;20064;-72
2021/09/21 03:17:40;;;;;;;10.70;9.55;;;10.50;99.90;;;;;;6207075;23;20024;-72
2021/09/21 03:20:06;;;;;;;12.55;11.07;;;10.50;99.90;;;;;;6205528;23;20020;-71
2021/09/21 03:22:32;;;;;;;12.85;10.73;;;10.50;99.90;;;;;;6206864;23;20021;-72
2021/09/21 03:24:58;;;;;;;13.13;11.00;;;10.60;99.90;;;;;;6181682;23;20424;-72
2021/09/21 03:27:24;;;;;;;12.18;10.82;;;10.60;99.90;;;;;;6206518;23;20387;-72
2021/09/21 03:29:50;;;;;;;11.02;9.80;;;10.60;99.90;;;;;;6181547;23;20016;-72
2021/09/21 03:32:18;;;;;;;9.85;8.55;;;10.60;99.90;;;;;;6206659;23;20408;-72
2021/09/21 03:34:44;;;;;;;11.55;9.32;;;10.60;99.90;;;;;;6183102;23;20017;-72
2021/09/21 03:37:11;;;;;;;9.73;8.40;;;10.60;99.90;;;;;;6155854;23;20035;-72
2021/09/21 03:39:38;;;;;;;13.82;11.60;;;10.60;99.90;;;;;;6184896;23;20020;-72
2021/09/21 03:42:05;;;;;;;14.10;11.27;;;10.60;99.90;;;;;;6207480;23;20453;-72
2021/09/21 03:44:30;;;;;;;11.20;9.60;;;10.70;99.90;;;;;;6183855;23;20022;-72
2021/09/21 03:46:56;;;;;;;14.23;11.70;;;10.60;99.90;;;;;;6208120;23;20099;-72
2021/09/21 03:49:24;;;;;;;15.10;11.70;;;10.60;99.90;;;;;;6208910;23;20471;-72
2021/09/21 03:51:50;;;;;;;12.63;11.27;;;10.60;99.90;;;;;;6208933;23;20511;-72
2021/09/21 03:54:16;;;;;;;12.23;11.00;;;10.60;99.90;;;;;;6208872;23;20024;-72
2021/09/21 03:56:42;;;;;;;13.20;11.13;;;10.60;99.90;;;;;;6209884;23;21085;-72
2021/09/21 03:59:08;;;;;;;15.93;12.43;;;10.60;99.90;;;;;;6207808;23;20020;-72
2021/09/21 04:01:35;;;;;;;11.65;10.45;;;10.60;99.90;;;;;;6182650;23;20016;-71
2021/09/21 04:04:03;;;;;;;12.40;9.73;;;10.60;99.90;;;;;;6207586;23;20024;-72
2021/09/21 04:06:29;;;;;;;12.48;9.43;;;10.60;99.90;;;;;;6159502;23;20020;-72
2021/09/21 04:08:55;;;;;;;11.27;9.82;;;10.60;99.90;;;;;;6183449;23;20031;-72
2021/09/21 04:11:21;;;;;;;11.35;10.15;;;10.70;99.90;;;;;;6182104;23;20025;-72
2021/09/21 04:13:48;;;;;;;12.55;11.20;;;10.70;99.90;;;;;;6208283;23;20380;-71
2021/09/21 04:16:14;;;;;;;14.43;12.32;;;10.70;99.90;;;;;;6181879;23;20028;-72
2021/09/21 04:18:40;;;;;;;12.32;11.10;;;10.70;99.90;;;;;;6209157;23;20337;-72
2021/09/21 04:21:05;;;;;;;13.07;10.50;;;10.70;99.90;;;;;;6183067;23;20102;-72
2021/09/21 04:23:32;;;;;;;11.38;10.27;;;10.70;99.90;;;;;;6183325;23;20074;-72
2021/09/21 04:25:58;;;;;;;11.52;10.25;;;10.70;99.90;;;;;;6159187;23;20023;-72
2021/09/21 04:28:24;;;;;;;12.75;11.45;;;10.70;99.90;;;;;;6205818;23;20488;-72
2021/09/21 04:30:51;;;;;;;11.68;9.70;;;10.70;99.90;;;;;;6208995;23;20016;-71
2021/09/21 04:33:17;;;;;;;13.55;11.35;;;10.70;99.90;;;;;;6207637;23;20560;-72
2021/09/21 04:35:44;;;;;;;12.43;10.20;;;10.70;99.90;;;;;;6208559;23;20477;-72
2021/09/21 04:38:10;;;;;;;12.68;10.13;;;10.70;99.90;;;;;;6183953;23;20099;-72
2021/09/21 04:40:36;;;;;;;12.15;10.18;;;10.70;99.90;;;;;;6183895;23;20419;-71
2021/09/21 04:43:03;;;;;;;11.02;9.52;;;10.80;99.90;;;;;;6207873;23;20024;-71
2021/09/21 04:45:30;;;;;;;10.50;8.35;;;10.70;99.90;;;;;;6208177;23;20396;-72
2021/09/21 04:47:56;;;;;;;11.43;10.05;;;10.80;99.90;;;;;;6208843;23;20016;-71
2021/09/21 04:50:22;;;;;;;12.57;10.38;;;10.80;99.90;;;;;;6181408;23;20166;-72
2021/09/21 04:52:48;;;;;;;11.70;9.95;;;10.80;99.90;;;;;;6184059;23;20402;-71
2021/09/21 04:55:13;;;;;;;12.75;9.82;;;10.80;99.90;;;;;;6182303;23;20017;-72
2021/09/21 04:57:39;;;;;;;10.13;8.45;;;10.80;99.90;;;;;;6205089;23;20012;-72
2021/09/21 05:00:06;;;;;;;11.75;8.68;;;10.80;99.90;;;;;;6158145;23;20043;-72
2021/09/21 05:02:32;;;;;;;10.95;8.77;;;10.80;99.90;;;;;;6205389;23;20453;-72
2021/09/21 05:04:58;;;;;;;10.13;8.40;;;10.70;99.90;;;;;;6207337;23;20028;-71
2021/09/21 05:07:24;;;;;;;10.73;9.18;;;10.70;99.90;;;;;;6208380;23;20397;-71
2021/09/21 05:09:50;;;;;;;11.43;9.23;;;10.70;99.90;;;;;;6182316;23;20368;-72
2021/09/21 05:12:15;;;;;;;11.80;9.88;;;10.70;99.90;;;;;;6207869;23;20016;-72
2021/09/21 05:14:41;;;;;;;10.57;9.43;;;10.70;99.90;;;;;;6183367;23;20023;-71
2021/09/21 05:17:07;;;;;;;10.60;9.50;;;10.70;99.90;;;;;;6206721;23;20028;-71
2021/09/21 05:19:33;;;;;;;10.93;9.43;;;10.70;99.90;;;;;;6179452;23;20012;-72
2021/09/21 05:21:59;;;;;;;11.02;9.30;;;10.70;99.90;;;;;;6206458;23;20024;-72
2021/09/21 05:24:24;;;;;;;11.23;9.07;;;10.70;99.90;;;;;;6132379;23;20023;-72
2021/09/21 05:26:50;;;;;;;11.30;10.10;;;10.70;99.90;;;;;;6158155;23;20322;-72
2021/09/21 05:29:16;;;;;;;11.90;10.23;;;10.70;99.90;;;;;;6157645;23;20070;-72
2021/09/21 05:31:42;;;;;;;10.93;8.88;;;10.60;99.90;;;;;;6181869;23;20512;-72
2021/09/21 05:34:08;;;;;;;12.15;10.68;;;10.60;99.90;;;;;;6205803;23;20345;-72
2021/09/21 05:36:33;;;;;;;12.88;9.73;;;10.60;99.90;;;;;;6206517;23;20337;-72
2021/09/21 05:38:59;;;;;;;11.32;9.40;;;10.60;99.90;;;;;;6206409;23;20057;-72
2021/09/21 05:41:25;;;;;;;12.60;9.65;;;10.60;99.90;;;;;;6181285;23;20017;-72
2021/09/21 05:43:54;;;;;;;11.75;9.35;;;10.60;99.90;;;;;;6157720;23;20023;-72
2021/09/21 05:46:20;;;;;;;10.35;9.25;;;10.60;99.90;;;;;;6153285;23;20020;-71
2021/09/21 05:48:45;;;;;;;10.85;9.02;;;10.60;99.90;;;;;;6156382;23;20063;-71
2021/09/21 05:51:11;;;;;;;9.73;8.75;;;10.60;99.90;;;;;;6202185;23;20027;-71
2021/09/21 05:53:37;;;;;;;12.73;9.82;;;10.60;99.90;;;;;;6179083;23;20063;-71
2021/09/21 05:56:03;;;;;;;12.38;9.80;;;10.60;99.90;;;;;;6179753;23;20013;-71
2021/09/21 05:58:29;;;;;;;10.25;9.27;;;10.60;99.90;;;;;;6161088;23;20023;-70
2021/09/21 06:00:57;;;;;;;12.70;9.82;;;10.50;99.90;;;;;;6184112;23;20874;-71
2021/09/21 06:03:24;;;;;;;12.20;10.98;;;10.50;99.90;;;;;;6186865;23;20024;-71
2021/09/21 06:05:50;;;;;;;13.38;10.50;;;10.50;99.90;;;;;;6184025;23;20024;-70
2021/09/21 06:08:17;;;;;;;11.18;9.98;;;10.40;99.90;;;;;;6211591;23;20016;-71
2021/09/21 06:10:43;;;;;;;13.65;10.50;;;10.50;99.90;;;;;;6185862;23;20015;-71
2021/09/21 06:13:09;;;;;;;12.85;10.07;;;10.50;99.90;;;;;;6162974;23;20095;-71
2021/09/21 06:15:34;;;;;;;13.60;11.52;;;10.50;99.90;;;;;;6185598;23;20020;-71
2021/09/21 06:18:00;;;;;;;12.10;10.40;;;10.50;99.90;;;;;;6187294;23;20024;-71
2021/09/21 06:20:26;;;;;;;11.52;9.40;;;10.50;99.90;;;;;;6212017;23;20095;-71
2021/09/21 06:22:52;;;;;;;14.20;11.65;;;10.50;99.90;;;;;;6186880;23;20020;-71
2021/09/21 06:25:18;;;;;;;11.18;9.68;;;10.60;99.90;;;;;;6161436;23;20248;-71
2021/09/21 06:27:45;;;;;;;13.43;12.02;;;10.60;99.90;;;;;;6186425;23;20027;-71
2021/09/21 06:30:13;;;;;;;13.00;9.73;;;10.60;99.90;;;;;;6211537;23;20427;-71
2021/09/21 06:32:39;;;;;;;11.25;9.88;;;10.60;99.90;;;;;;6185843;23;20022;-71
2021/09/21 06:35:06;;;;;;;13.73;11.32;;;10.60;99.90;;;;;;6212459;23;20043;-70
2021/09/21 06:37:35;;;;;;;12.80;10.90;;;10.60;99.90;;;;;;6210052;23;20023;-72
2021/09/21 06:40:04;;;;;;;11.73;10.48;;;10.70;99.90;;;;;;6163614;23;20070;-72
2021/09/21 06:42:33;;;;;;;12.75;10.98;;;10.70;99.90;;;;;;6209838;23;20245;-71
2021/09/21 06:44:59;;;;;;;14.73;11.40;;;10.80;99.90;;;;;;6188130;23;20020;-72
2021/09/21 06:47:25;;;;;;;12.85;11.35;;;10.80;99.90;;;;;;6185578;23;20012;-72
2021/09/21 06:49:51;;;;;;;12.88;10.93;;;10.80;99.90;;;;;;6184230;23;20471;-71
2021/09/21 06:52:16;;;;;;;12.35;11.05;;;10.90;99.90;;;;;;6212353;23;20020;-72
2021/09/21 06:54:42;;;;;;;11.60;10.05;;;10.90;99.90;;;;;;6185291;23;20445;-72
2021/09/21 06:57:08;;;;;;;13.23;11.45;;;11.00;99.90;;;;;;6186692;23;20449;-72
2021/09/21 06:59:34;;;;;;;13.00;11.60;;;11.00;99.90;;;;;;6210428;23;20388;-72
2021/09/21 07:02:03;;;;;;;14.27;11.35;;;11.10;99.90;;;;;;6187589;23;20412;-72
2021/09/21 07:04:29;;;;;;;12.35;10.13;;;11.20;99.90;;;;;;6185693;23;20016;-71
2021/09/21 07:06:55;;;;;;;12.90;11.63;;;11.20;99.90;;;;;;6183332;23;20022;-70
2021/09/21 07:09:20;;;;;;;12.18;10.00;;;11.30;99.90;;;;;;6186568;23;20511;-71
2021/09/21 07:11:46;;;;;;;13.52;9.57;;;11.40;99.90;;;;;;6157467;23;20478;-70
2021/09/21 07:14:14;;;;;;;11.70;10.48;;;11.50;99.90;;;;;;6185585;23;20027;-71
2021/09/21 07:16:41;;;;;;;11.43;9.40;;;11.60;99.90;;;;;;6208960;23;20016;-71
2021/09/21 07:19:06;;;;;;;13.13;9.98;;;11.80;99.90;;;;;;6186626;23;20016;-71
2021/09/21 07:21:32;;;;;;;18.48;10.30;;;11.80;99.90;;;;;;6159273;23;20024;-71
2021/09/21 07:23:58;;;;;;;14.55;9.93;;;12.00;99.90;;;;;;6183706;23;20672;-72
2021/09/21 07:26:24;;;;;;;13.68;8.68;;;12.10;99.90;;;;;;6137872;23;20514;-72
2021/09/21 07:28:50;;;;;;;11.32;8.80;;;12.20;99.90;;;;;;6184164;23;20456;-71
2021/09/21 07:31:17;;;;;;;11.57;9.02;;;12.30;99.90;;;;;;6184658;23;20024;-71
2021/09/21 07:33:43;;;;;;;11.73;8.25;;;12.40;99.90;;;;;;6211175;23;20023;-71
2021/09/21 07:36:09;;;;;;;10.05;8.60;;;12.50;99.90;;;;;;6210684;23;20024;-71
2021/09/21 07:38:35;;;;;;;8.85;7.20;;;12.50;99.90;;;;;;6161596;23;20019;-71
2021/09/21 07:41:07;;;;;;;10.40;7.30;;;12.60;99.90;;;;;;6186626;23;20023;-70
2021/09/21 07:43:33;;;;;;;10.02;8.10;;;12.70;99.90;;;;;;6184195;23;20400;-70
2021/09/21 07:45:58;;;;;;;10.93;8.38;;;12.80;99.90;;;;;;6185672;23;20020;-70
2021/09/21 07:48:24;;;;;;;9.95;7.85;;;13.00;99.90;;;;;;6182972;23;20307;-70
2021/09/21 07:50:56;;;;;;;20.23;8.60;;;13.00;99.90;;;;;;6186164;23;20100;-70
2021/09/21 07:53:22;;;;;;;30.23;10.23;;;13.10;99.90;;;;;;6182770;23;20102;-70
2021/09/21 07:55:50;;;;;;;18.63;8.57;;;13.20;99.90;;;;;;6209116;23;20441;-70
2021/09/21 07:58:18;;;;;;;18.60;8.88;;;13.30;99.90;;;;;;6186572;23;20496;-70
2021/09/21 08:00:44;;;;;;;10.70;8.80;;;13.30;99.90;;;;;;6210840;23;20016;-70
2021/09/21 08:03:10;;;;;;;12.18;7.88;;;13.40;99.90;;;;;;6184110;23;20070;-71
2021/09/21 08:05:36;;;;;;;10.68;8.68;;;13.50;99.90;;;;;;6210873;23;20090;-70
2021/09/21 08:08:05;;;;;;;11.50;8.15;;;13.50;99.90;;;;;;6159566;23;20020;-70
2021/09/21 08:10:30;;;;;;;12.75;7.53;;;13.60;99.90;;;;;;6161308;23;20334;-71
2021/09/21 08:12:56;;;;;;;12.60;8.55;;;13.70;99.90;;;;;;6185940;23;20026;-71
2021/09/21 08:15:24;;;;;;;9.70;8.18;;;13.70;99.90;;;;;;6159176;23;20031;-70
2021/09/21 08:17:49;;;;;;;10.98;8.00;;;13.80;99.90;;;;;;6211627;23;20027;-70
2021/09/21 08:20:15;;;;;;;11.23;8.65;;;13.80;99.90;;;;;;6185409;23;20048;-70
2021/09/21 08:22:41;;;;;;;18.48;8.02;;;13.90;99.90;;;;;;6186899;23;20017;-71
2021/09/21 08:25:08;;;;;;;17.35;8.82;;;14.00;99.90;;;;;;6187223;23;20024;-71
2021/09/21 08:27:37;;;;;;;11.65;7.88;;;14.00;99.90;;;;;;6160975;23;20020;-71
2021/09/21 08:30:04;;;;;;;10.10;8.18;;;14.10;99.90;;;;;;6189280;23;20109;-71
2021/09/21 08:32:32;;;;;;;10.50;8.38;;;14.20;99.90;;;;;;6160792;23;20460;-71
2021/09/21 08:34:58;;;;;;;11.25;7.38;;;14.20;99.90;;;;;;6187480;23;20356;-71
2021/09/21 08:37:25;;;;;;;12.13;7.80;;;14.30;99.80;;;;;;6187823;23;20043;-71
2021/09/21 08:39:50;;;;;;;10.98;7.78;;;14.30;99.70;;;;;;6162898;23;20047;-71
2021/09/21 08:42:16;;;;;;;11.68;7.88;;;14.40;99.80;;;;;;6186708;23;20027;-71
2021/09/21 08:44:42;;;;;;;9.48;7.32;;;14.50;99.80;;;;;;6212906;23;20012;-71
2021/09/21 08:47:08;;;;;;;9.25;7.40;;;14.50;99.70;;;;;;6186879;23;20384;-71
2021/09/21 08:49:34;;;;;;;10.10;7.68;;;14.60;99.50;;;;;;6161728;23;20078;-71
2021/09/21 08:52:00;;;;;;;10.18;7.70;;;14.70;99.40;;;;;;6160968;23;20027;-71
2021/09/21 08:54:29;;;;;;;9.82;7.50;;;14.70;99.30;;;;;;6186818;23;20012;-71
2021/09/21 08:56:55;;;;;;;11.02;7.88;;;14.70;99.30;;;;;;6155921;23;20016;-71
2021/09/21 08:59:35;;;;;;;10.50;7.53;;;14.80;99.50;;;;;;6205476;23;20028;-71
2021/09/21 09:02:09;;;;;;;10.63;7.60;;;14.90;99.30;;;;;;6183993;23;20356;-71
2021/09/21 09:04:37;;;;;;;16.35;7.63;;;15.00;99.30;;;;;;6182574;23;20707;-70
2021/09/21 09:07:04;;;;;;;10.93;7.47;;;15.10;99.30;;;;;;6183093;23;20016;-71
2021/09/21 09:09:37;;;;;;;9.70;7.28;;;15.20;99.30;;;;;;6182464;23;20012;-70
2021/09/21 09:12:05;;;;;;;10.55;7.50;;;15.30;99.20;;;;;;6160147;23;20023;-71
2021/09/21 09:14:34;;;;;;;8.93;7.03;;;15.40;98.90;;;;;;6180486;23;20035;-71
2021/09/21 09:17:18;;;;;;;10.15;7.65;;;15.50;99.10;;;;;;6208446;23;20024;-71
2021/09/21 09:19:45;;;;;;;8.95;7.35;;;15.60;99.20;;;;;;6179331;23;20016;-70
2021/09/21 09:22:27;;;;;;;7.57;6.68;;;15.70;98.80;;;;;;6208374;23;20272;-71
2021/09/21 09:24:57;;;;;;;11.38;7.13;;;15.80;98.20;;;;;;6181280;23;20441;-80
2021/09/21 09:27:35;;;;;;;8.55;6.60;;;15.90;97.90;;;;;;6206206;23;20099;-80
2021/09/21 09:30:05;;;;;;;6.68;5.55;;;16.00;97.40;;;;;;6205388;23;20353;-80
2021/09/21 09:32:40;;;;;;;8.05;5.90;;;16.10;97.60;;;;;;6182643;23;20056;-71
2021/09/21 09:35:07;;;;;;;8.05;5.53;;;16.20;97.70;;;;;;6182112;23;20476;-71
2021/09/21 09:37:40;;;;;;;13.75;6.43;;;16.40;97.20;;;;;;6201766;23;20465;-71
2021/09/21 09:40:09;;;;;;;9.38;6.13;;;16.60;96.70;;;;;;6207156;23;20449;-71
2021/09/21 09:42:40;;;;;;;12.90;6.40;;;16.70;96.30;;;;;;6206658;23;20021;-71
2021/09/21 09:45:06;;;;;;;7.82;5.30;;;16.80;96.60;;;;;;6206822;23;20024;-71
2021/09/21 09:47:42;;;;;;;7.40;5.20;;;16.90;96.10;;;;;;6181525;23;20039;-71
2021/09/21 09:50:11;;;;;;;7.55;5.40;;;16.90;95.90;;;;;;6181567;23;20020;-70
2021/09/21 09:52:37;;;;;;;7.75;5.13;;;17.10;94.80;;;;;;6156025;23;20027;-71
2021/09/21 09:55:03;;;;;;;9.48;4.95;;;17.10;94.20;;;;;;6182588;23;20016;-70
2021/09/21 09:57:30;;;;;;;7.43;5.20;;;17.10;93.90;;;;;;6206451;23;20044;-70
2021/09/21 09:59:58;;;;;;;7.82;4.93;;;17.10;93.90;;;;;;6182863;23;20052;-71
2021/09/21 10:02:25;;;;;;;6.75;5.13;;;17.10;94.50;;;;;;6152320;23;20422;-71
2021/09/21 10:04:51;;;;;;;7.55;5.05;;;17.20;94.10;;;;;;6181469;23;20027;-69
2021/09/21 10:07:18;;;;;;;9.90;5.90;;;17.10;93.70;;;;;;6181359;23;20314;-71
2021/09/21 10:09:44;;;;;;;17.08;5.85;;;17.20;93.50;;;;;;6180200;23;20099;-70
2021/09/21 10:12:12;;;;;;;14.25;5.60;;;17.20;94.20;;;;;;6158271;23;20523;-70
2021/09/21 10:14:40;;;;;;;7.78;5.82;;;17.10;93.50;;;;;;6177982;23;20028;-70
2021/09/21 10:17:09;;;;;;;9.45;5.25;;;17.10;93.60;;;;;;6180608;23;20095;-70
2021/09/21 10:19:40;;;;;;;7.53;5.38;;;17.10;93.80;;;;;;6206236;23;20449;-71
2021/09/21 10:22:07;;;;;;;7.85;5.82;;;17.10;93.70;;;;;;6204526;23;20031;-71
2021/09/21 10:24:49;;;;;;;9.55;5.97;;;17.20;93.70;;;;;;6204984;23;20016;-70
2021/09/21 10:27:21;;;;;;;6.38;5.25;;;17.10;93.20;;;;;;6207968;23;20441;-71
2021/09/21 10:30:07;;;;;;;11.10;5.57;;;17.20;93.60;;;;;;6180647;23;20557;-71
2021/09/21 10:32:44;;;;;;;14.63;6.72;;;17.20;93.20;;;;;;6178567;23;20024;-70
2021/09/21 10:35:12;;;;;;;9.82;6.63;;;17.30;93.30;;;;;;6204954;23;20020;-70
2021/09/21 10:37:38;;;;;;;9.75;6.35;;;17.30;92.80;;;;;;6181759;23;20020;-70
2021/09/21 10:40:08;;;;;;;7.63;6.47;;;17.30;92.60;;;;;;6133126;23;19916;-71
2021/09/21 10:42:34;;;;;;;11.30;6.80;;;17.30;92.60;;;;;;6206946;23;20083;-71
2021/09/21 10:45:04;;;;;;;8.90;6.05;;;17.40;92.70;;;;;;6181023;23;20055;-71
2021/09/21 10:47:37;;;;;;;11.88;6.57;;;17.40;92.70;;;;;;6207156;23;20079;-71
2021/09/21 10:50:11;;;;;;;18.85;6.47;;;17.40;92.70;;;;;;6182801;23;20099;-72
2021/09/21 10:52:40;;;;;;;13.77;6.85;;;17.50;92.50;;;;;;6206412;23;20016;-72
2021/09/21 10:55:14;;;;;;;10.40;6.35;;;17.60;92.90;;;;;;6157229;23;20032;-71
2021/09/21 10:57:47;;;;;;;11.13;6.55;;;17.60;92.80;;;;;;6206320;23;20020;-71
2021/09/21 11:00:23;;;;;;;9.75;6.53;;;17.70;92.70;;;;;;6180906;23;20056;-71
2021/09/21 11:02:54;;;;;;;12.43;6.65;;;17.80;92.50;;;;;;6157639;23;20017;-71
2021/09/21 11:05:26;;;;;;;12.38;7.28;;;17.70;93.10;;;;;;6206091;23;20075;-71
2021/09/21 11:07:55;;;;;;;13.70;7.65;;;17.80;93.90;;;;;;6180684;23;20020;-71
2021/09/21 11:10:26;;;;;;;12.63;7.82;;;17.80;93.60;;;;;;6207506;23;20031;-71
2021/09/21 11:12:52;;;;;;;11.70;7.10;;;17.80;93.50;;;;;;6176897;23;20020;-71
2021/09/21 11:15:23;;;;;;;14.57;7.80;;;17.80;93.80;;;;;;6205674;23;20155;-71
2021/09/21 11:17:52;;;;;;;10.43;7.90;;;17.90;93.60;;;;;;6204802;23;20082;-71
2021/09/21 11:20:18;;;;;;;17.57;9.27;;;18.00;93.20;;;;;;6179467;23;20024;-71
2021/09/21 11:22:49;;;;;;;14.88;7.97;;;18.10;93.40;;;;;;6179677;23;20262;-71
2021/09/21 11:25:14;;;;;;;11.15;7.63;;;18.20;93.50;;;;;;6180706;23;20048;-72
2021/09/21 11:27:41;;;;;;;12.43;8.57;;;18.20;93.20;;;;;;6201727;23;20082;-71
2021/09/21 11:30:13;;;;;;;13.20;8.70;;;18.30;92.90;;;;;;6203780;23;20020;-70
2021/09/21 11:32:41;;;;;;;12.00;7.93;;;18.30;92.70;;;;;;6181324;23;20348;-70
2021/09/21 11:35:15;;;;;;;9.82;7.97;;;18.30;93.00;;;;;;6206330;23;20013;-71
2021/09/21 11:37:46;;;;;;;13.63;8.00;;;18.30;93.10;;;;;;6206406;23;20083;-70
2021/09/21 11:40:43;;;;;;;12.23;8.82;;;18.30;92.60;;;;;;6180739;23;20071;-70
2021/09/21 11:43:11;;;;;;;11.05;8.07;;;18.30;92.20;;;;;;6163644;23;20095;-70
2021/09/21 11:45:39;;;;;;;14.93;7.90;;;18.20;92.10;;;;;;6179920;23;20221;-71
2021/09/21 11:48:08;;;;;;;12.90;6.95;;;18.20;92.30;;;;;;6180012;23;20020;-70
2021/09/21 11:50:34;;;;;;;11.73;6.43;;;18.20;92.80;;;;;;6206741;23;20221;-70
2021/09/21 11:53:08;;;;;;;9.73;5.93;;;18.20;93.30;;;;;;6204929;23;20028;-70
2021/09/21 11:55:41;;;;;;;8.63;6.57;;;18.20;93.00;;;;;;6202108;23;20508;-70
2021/09/21 11:58:10;;;;;;;9.35;5.90;;;18.10;92.90;;;;;;6205393;23;20013;-70
2021/09/21 12:00:42;;;;;;;8.88;6.32;;;18.10;92.90;;;;;;6159525;23;20016;-70
2021/09/21 12:03:10;;;;;;;10.93;7.35;;;18.00;93.40;;;;;;6209314;23;20099;-71
2021/09/21 12:05:42;;;;;;;8.93;6.63;;;18.00;93.20;;;;;;6206675;23;20027;-71
2021/09/21 12:08:17;;;;;;;10.68;6.47;;;18.00;93.90;;;;;;6182113;23;20120;-70
2021/09/21 12:10:49;;;;;;;8.95;5.70;;;18.00;94.30;;;;;;6207144;23;20009;-71
2021/09/21 12:13:18;;;;;;;6.32;4.70;;;18.00;93.90;;;;;;6181355;23;20021;-71
2021/09/21 12:15:48;;;;;;;8.93;5.78;;;18.00;93.90;;;;;;6182702;23;20415;-71
2021/09/21 12:18:15;;;;;;;7.10;5.05;;;18.00;94.00;;;;;;6205675;23;20013;-71
2021/09/21 12:20:51;;;;;;;8.57;5.30;;;18.00;94.10;;;;;;6181770;23;20024;-71
2021/09/21 12:23:22;;;;;;;9.52;4.75;;;18.00;93.90;;;;;;6183038;23;20481;-70
2021/09/21 12:25:51;;;;;;;6.65;5.25;;;17.90;93.20;;;;;;6207730;23;20057;-71
2021/09/21 12:28:21;;;;;;;11.25;5.45;;;17.80;93.30;;;;;;6182210;23;20032;-71
2021/09/21 12:30:47;;;;;;;10.07;5.03;;;17.80;93.20;;;;;;6184288;23;20016;-71
2021/09/21 12:33:15;;;;;;;11.52;5.22;;;17.70;93.40;;;;;;6131992;23;20127;-71
2021/09/21 12:35:47;;;;;;;7.50;5.32;;;17.70;94.00;;;;;;6205154;23;20175;-71
2021/09/21 12:38:23;;;;;;;7.22;5.63;;;17.60;93.80;;;;;;6208783;23;20055;-70
2021/09/21 12:40:55;;;;;;;6.47;5.25;;;17.60;93.90;;;;;;6182371;23;20028;-71
2021/09/21 12:43:29;;;;;;;7.88;5.82;;;17.50;94.10;;;;;;6181176;23;20530;-72
2021/09/21 12:45:58;;;;;;;7.40;4.93;;;17.50;93.90;;;;;;6204302;23;20055;-71
2021/09/21 12:48:26;;;;;;;13.07;5.35;;;17.50;93.90;;;;;;6184174;23;20095;-71